Time;durP1;ratioP1;P1;durP2;ratioP2;P2;SDS_P1;SDS_P2;PMS_P1;PMS_P2;Temp;Humidity;BMP_temperature;BMP_pressure;BME280_temperature;BME280_humidity;BME280_pressure;Samples;Min_cycle;Max_cycle;Signal;HPM_P1;HPM_P2
2022/10/15 00:01:39;;;;;;;179.25;73.68;;;;;;;;;;4982581;28;20050;-64
2022/10/15 00:04:05;;;;;;;183.40;74.55;;;;;;;;;;4979067;28;20486;-64
2022/10/15 00:06:31;;;;;;;179.40;76.15;;;;;;;;;;4981409;28;20410;-64
2022/10/15 00:08:57;;;;;;;169.98;72.82;;;;;;;;;;4982267;28;20515;-64
2022/10/15 00:11:25;;;;;;;183.52;72.88;;;;;;;;;;4963362;28;20160;-64
2022/10/15 00:13:53;;;;;;;178.18;74.32;;;;;;;;;;4979321;28;20060;-65
2022/10/15 00:16:21;;;;;;;176.65;73.70;;;;;;;;;;4981489;28;20089;-64
2022/10/15 00:18:48;;;;;;;183.20;75.40;;;;;;;;;;4982168;28;20402;-64
2022/10/15 00:21:15;;;;;;;192.20;78.22;;;;;;;;;;4981288;28;20054;-64
2022/10/15 00:23:41;;;;;;;199.77;78.13;;;;;;;;;;4982002;28;20050;-64
2022/10/15 00:26:09;;;;;;;185.82;75.32;;;;;;;;;;4981293;28;20046;-64
2022/10/15 00:28:35;;;;;;;177.32;72.07;;;;;;;;;;4978729;28;20050;-64
2022/10/15 00:31:02;;;;;;;184.52;74.25;;;;;;;;;;4983983;28;20050;-64
2022/10/15 00:33:28;;;;;;;191.85;77.90;;;;;;;;;;4979035;28;20053;-64
2022/10/15 00:36:02;;;;;;;192.57;78.00;;;;;;;;;;4979718;28;20184;-64
2022/10/15 00:38:29;;;;;;;191.95;74.65;;;;;;;;;;4978872;28;20074;-64
2022/10/15 00:40:55;;;;;;;187.93;75.88;;;;;;;;;;4979506;28;20038;-65
2022/10/15 00:43:40;;;;;;;196.20;75.53;;;;;;;;;;4979886;28;20042;-65
2022/10/15 00:46:06;;;;;;;173.90;73.68;;;;;;;;;;4982753;28;20448;-65
2022/10/15 00:48:33;;;;;;;196.20;75.45;;;;;;;;;;4980329;28;20064;-64
2022/10/15 00:51:01;;;;;;;203.50;77.38;;;;;;;;;;4982877;28;20505;-64
2022/10/15 00:53:27;;;;;;;221.50;79.20;;;;;;;;;;4980731;28;20161;-64
2022/10/15 00:55:54;;;;;;;210.57;76.90;;;;;;;;;;4979513;28;20069;-64
2022/10/15 00:58:26;;;;;;;234.55;80.75;;;;;;;;;;4978539;28;20053;-64
2022/10/15 01:00:53;;;;;;;222.82;77.55;;;;;;;;;;4980765;28;20049;-65
2022/10/15 01:03:19;;;;;;;231.15;80.80;;;;;;;;;;4980171;28;20088;-65
2022/10/15 01:05:46;;;;;;;255.18;83.18;;;;;;;;;;4983261;28;20101;-65
2022/10/15 01:08:12;;;;;;;235.25;82.38;;;;;;;;;;4981753;28;20042;-64
2022/10/15 01:10:44;;;;;;;252.10;83.82;;;;;;;;;;4980032;28;20050;-64
2022/10/15 01:13:14;;;;;;;260.77;83.45;;;;;;;;;;4984446;28;20058;-65
2022/10/15 01:15:49;;;;;;;258.73;83.10;;;;;;;;;;4984932;28;20041;-64
2022/10/15 01:18:19;;;;;;;243.70;80.00;;;;;;;;;;4983536;28;20131;-64
2022/10/15 01:20:57;;;;;;;267.85;84.90;;;;;;;;;;4980692;28;20039;-64
2022/10/15 01:23:30;;;;;;;283.95;84.38;;;;;;;;;;4981354;28;20095;-65
2022/10/15 01:25:57;;;;;;;264.40;81.28;;;;;;;;;;4963676;28;20053;-64
2022/10/15 01:28:36;;;;;;;261.65;82.85;;;;;;;;;;4980425;28;20054;-64
2022/10/15 01:31:06;;;;;;;278.92;82.97;;;;;;;;;;4978531;28;20172;-64
2022/10/15 01:33:36;;;;;;;253.95;84.03;;;;;;;;;;4980910;28;20305;-64
2022/10/15 01:36:08;;;;;;;251.93;83.68;;;;;;;;;;4963812;28;20063;-64
2022/10/15 01:38:45;;;;;;;238.02;79.15;;;;;;;;;;4964709;28;20058;-64
2022/10/15 01:41:25;;;;;;;231.15;78.90;;;;;;;;;;4983309;28;20125;-65
2022/10/15 01:43:57;;;;;;;251.05;82.75;;;;;;;;;;4964997;28;20490;-64
2022/10/15 01:46:27;;;;;;;220.23;80.18;;;;;;;;;;4966795;28;20064;-65
2022/10/15 01:48:56;;;;;;;240.68;82.50;;;;;;;;;;4983146;28;21887;-64
2022/10/15 01:51:24;;;;;;;240.65;81.97;;;;;;;;;;4967946;28;20052;-64
2022/10/15 01:53:50;;;;;;;245.40;83.10;;;;;;;;;;4983649;28;20092;-64
2022/10/15 01:56:19;;;;;;;226.15;76.80;;;;;;;;;;4964191;28;20045;-64
2022/10/15 01:58:47;;;;;;;236.43;79.38;;;;;;;;;;4980921;28;20038;-64
2022/10/15 02:01:13;;;;;;;239.18;80.45;;;;;;;;;;4980559;28;20077;-65
2022/10/15 02:03:45;;;;;;;204.32;73.55;;;;;;;;;;4980919;28;20494;-65
2022/10/15 02:06:15;;;;;;;202.52;72.38;;;;;;;;;;4984240;28;20042;-64
2022/10/15 02:08:41;;;;;;;208.88;73.55;;;;;;;;;;4986689;28;20124;-64
2022/10/15 02:11:11;;;;;;;211.40;72.32;;;;;;;;;;4970230;28;20199;-64
2022/10/15 02:13:37;;;;;;;206.85;70.07;;;;;;;;;;4978019;28;20149;-64
2022/10/15 02:16:12;;;;;;;203.57;72.55;;;;;;;;;;4979477;28;20086;-64
2022/10/15 02:18:40;;;;;;;183.07;66.13;;;;;;;;;;4980512;28;20065;-64
2022/10/15 02:21:12;;;;;;;208.88;68.97;;;;;;;;;;4979942;28;20077;-64
2022/10/15 02:23:45;;;;;;;186.75;62.75;;;;;;;;;;4976576;28;20042;-64
2022/10/15 02:26:13;;;;;;;175.02;64.95;;;;;;;;;;4979915;28;20070;-64
2022/10/15 02:28:41;;;;;;;161.68;58.70;;;;;;;;;;4980080;28;20094;-65
2022/10/15 02:31:09;;;;;;;178.05;58.92;;;;;;;;;;4977505;28;21708;-64
2022/10/15 02:33:35;;;;;;;207.73;67.32;;;;;;;;;;4975658;28;20050;-64
2022/10/15 02:36:01;;;;;;;179.88;61.25;;;;;;;;;;4979537;28;20137;-64
2022/10/15 02:38:30;;;;;;;188.98;58.17;;;;;;;;;;4980063;28;20149;-64
2022/10/15 02:40:56;;;;;;;181.23;58.17;;;;;;;;;;4979306;28;20050;-65
2022/10/15 02:43:22;;;;;;;176.27;58.17;;;;;;;;;;4978653;28;20054;-64
2022/10/15 02:45:49;;;;;;;165.05;55.58;;;;;;;;;;4979995;28;20122;-64
2022/10/15 02:48:16;;;;;;;165.15;58.25;;;;;;;;;;4981168;28;20044;-64
2022/10/15 02:50:42;;;;;;;181.48;55.65;;;;;;;;;;4980002;28;20082;-64
2022/10/15 02:53:08;;;;;;;159.70;52.45;;;;;;;;;;4979640;28;20046;-64
2022/10/15 02:55:34;;;;;;;167.38;52.42;;;;;;;;;;4981190;28;20129;-64
2022/10/15 02:58:00;;;;;;;177.85;55.47;;;;;;;;;;4977342;28;20050;-65
2022/10/15 03:00:26;;;;;;;168.25;56.30;;;;;;;;;;4976671;28;20053;-64
2022/10/15 03:02:53;;;;;;;167.55;54.17;;;;;;;;;;4976740;28;20113;-64
2022/10/15 03:05:19;;;;;;;157.65;55.25;;;;;;;;;;4981428;28;20117;-65
2022/10/15 03:07:45;;;;;;;176.93;59.15;;;;;;;;;;4976478;28;20509;-64
2022/10/15 03:10:11;;;;;;;167.75;59.75;;;;;;;;;;4975369;28;20402;-65
2022/10/15 03:12:37;;;;;;;181.32;61.60;;;;;;;;;;4942875;28;20155;-64
2022/10/15 03:15:04;;;;;;;183.23;62.92;;;;;;;;;;4946065;28;20081;-64
2022/10/15 03:17:30;;;;;;;177.82;66.00;;;;;;;;;;4958790;28;20039;-64
2022/10/15 03:19:56;;;;;;;193.48;68.43;;;;;;;;;;4940388;28;20050;-64
2022/10/15 03:22:22;;;;;;;180.40;67.05;;;;;;;;;;4942366;28;20042;-64
2022/10/15 03:24:48;;;;;;;198.43;69.28;;;;;;;;;;4960487;28;20066;-64
2022/10/15 03:27:14;;;;;;;198.98;69.53;;;;;;;;;;4943764;28;20046;-64
2022/10/15 03:29:40;;;;;;;207.63;71.95;;;;;;;;;;4959402;28;20047;-64
2022/10/15 03:32:07;;;;;;;214.25;72.88;;;;;;;;;;4958887;28;20051;-64
2022/10/15 03:34:33;;;;;;;188.60;70.65;;;;;;;;;;4943473;28;20141;-64
2022/10/15 03:36:59;;;;;;;192.85;70.60;;;;;;;;;;4959397;28;20127;-64
2022/10/15 03:39:25;;;;;;;194.00;68.85;;;;;;;;;;4956658;28;20096;-64
2022/10/15 03:41:52;;;;;;;195.63;69.45;;;;;;;;;;4941825;28;20050;-65
2022/10/15 03:44:19;;;;;;;176.30;68.40;;;;;;;;;;4959066;28;21864;-64
2022/10/15 03:46:45;;;;;;;183.23;67.32;;;;;;;;;;4944376;28;20490;-64
2022/10/15 03:49:11;;;;;;;184.40;67.95;;;;;;;;;;4964437;28;20187;-64
2022/10/15 03:51:37;;;;;;;188.60;67.63;;;;;;;;;;4963946;28;20046;-64
2022/10/15 03:54:03;;;;;;;185.68;67.65;;;;;;;;;;4963107;28;20051;-64
2022/10/15 03:56:30;;;;;;;186.05;69.40;;;;;;;;;;4960545;28;20035;-64
2022/10/15 03:58:56;;;;;;;184.55;70.10;;;;;;;;;;4939011;28;20039;-64
2022/10/15 04:01:22;;;;;;;179.73;68.30;;;;;;;;;;4946480;28;20138;-64
2022/10/15 04:03:51;;;;;;;170.60;67.18;;;;;;;;;;4963967;28;20062;-65
2022/10/15 04:06:18;;;;;;;175.60;69.30;;;;;;;;;;4944726;28;20080;-64
2022/10/15 04:08:44;;;;;;;177.55;68.63;;;;;;;;;;4963306;28;20035;-64
2022/10/15 04:11:10;;;;;;;178.85;69.75;;;;;;;;;;4969903;28;20066;-64
2022/10/15 04:13:36;;;;;;;179.88;67.15;;;;;;;;;;4977866;28;20073;-64
2022/10/15 04:16:04;;;;;;;194.93;71.40;;;;;;;;;;4981266;28;20038;-64
2022/10/15 04:18:30;;;;;;;168.80;66.72;;;;;;;;;;4982414;28;20070;-64
2022/10/15 04:21:00;;;;;;;193.63;68.00;;;;;;;;;;4980930;28;20134;-64
2022/10/15 04:23:26;;;;;;;174.70;66.32;;;;;;;;;;4980669;28;20050;-64
2022/10/15 04:25:53;;;;;;;179.02;67.47;;;;;;;;;;4979258;28;20043;-65
2022/10/15 04:28:19;;;;;;;171.35;66.88;;;;;;;;;;4980344;28;20038;-65
2022/10/15 04:30:45;;;;;;;150.95;64.47;;;;;;;;;;4983023;28;20054;-64
2022/10/15 04:33:11;;;;;;;183.48;69.95;;;;;;;;;;4981366;28;20049;-64
2022/10/15 04:35:37;;;;;;;178.85;66.13;;;;;;;;;;4982013;28;20100;-64
2022/10/15 04:38:04;;;;;;;186.45;69.47;;;;;;;;;;4981856;28;20137;-65
2022/10/15 04:40:30;;;;;;;181.10;68.47;;;;;;;;;;4981019;28;20038;-64
2022/10/15 04:42:56;;;;;;;189.00;71.20;;;;;;;;;;4981245;28;20038;-64
2022/10/15 04:45:22;;;;;;;202.43;71.03;;;;;;;;;;4982527;28;20046;-64
2022/10/15 04:47:49;;;;;;;204.65;73.50;;;;;;;;;;4977441;28;20042;-64
2022/10/15 04:50:15;;;;;;;209.77;73.60;;;;;;;;;;4981162;28;20046;-64
2022/10/15 04:52:41;;;;;;;192.90;72.65;;;;;;;;;;4981271;28;20370;-64
2022/10/15 04:55:07;;;;;;;202.13;73.20;;;;;;;;;;4982077;28;20379;-65
2022/10/15 04:57:33;;;;;;;204.18;74.47;;;;;;;;;;4979957;28;20497;-64
2022/10/15 04:59:59;;;;;;;196.02;70.97;;;;;;;;;;4978905;28;20464;-64
2022/10/15 05:02:26;;;;;;;180.60;70.70;;;;;;;;;;4978952;28;20520;-64
2022/10/15 05:04:52;;;;;;;183.07;70.43;;;;;;;;;;4980110;28;20035;-65
2022/10/15 05:07:18;;;;;;;173.60;69.22;;;;;;;;;;4980587;28;20066;-65
2022/10/15 05:09:44;;;;;;;162.82;66.97;;;;;;;;;;4980291;28;20042;-64
2022/10/15 05:12:10;;;;;;;161.23;66.50;;;;;;;;;;4986234;28;20138;-64
2022/10/15 05:14:36;;;;;;;166.35;67.35;;;;;;;;;;4989392;28;20046;-64
2022/10/15 05:17:02;;;;;;;159.80;67.70;;;;;;;;;;4986194;28;20204;-64
2022/10/15 05:19:29;;;;;;;165.10;67.72;;;;;;;;;;4965097;28;20048;-64
2022/10/15 05:21:55;;;;;;;157.07;67.05;;;;;;;;;;4982912;28;20434;-64
2022/10/15 05:24:21;;;;;;;164.82;67.25;;;;;;;;;;4981829;28;20493;-64
2022/10/15 05:26:47;;;;;;;166.15;69.40;;;;;;;;;;4984538;28;20132;-64
2022/10/15 05:29:13;;;;;;;169.00;68.78;;;;;;;;;;4980774;28;20042;-64
2022/10/15 05:31:39;;;;;;;153.68;64.97;;;;;;;;;;4981700;28;20165;-64
2022/10/15 05:34:07;;;;;;;160.13;68.28;;;;;;;;;;4964257;28;20146;-64
2022/10/15 05:36:33;;;;;;;159.10;65.93;;;;;;;;;;4979987;28;20038;-64
2022/10/15 05:39:00;;;;;;;161.02;68.35;;;;;;;;;;4964058;28;20077;-64
2022/10/15 05:41:27;;;;;;;165.55;67.85;;;;;;;;;;4965896;28;20042;-64
2022/10/15 05:43:54;;;;;;;160.13;64.93;;;;;;;;;;4981396;28;20053;-64
2022/10/15 05:46:21;;;;;;;164.68;66.53;;;;;;;;;;4980860;28;20046;-64
2022/10/15 05:48:51;;;;;;;154.45;67.70;;;;;;;;;;4980152;28;20582;-64
2022/10/15 05:51:17;;;;;;;142.63;64.38;;;;;;;;;;4964297;28;20061;-64
2022/10/15 05:53:45;;;;;;;158.15;65.97;;;;;;;;;;4962095;28;20137;-64
2022/10/15 05:56:11;;;;;;;162.60;69.43;;;;;;;;;;4979509;28;20042;-64
2022/10/15 05:58:37;;;;;;;166.75;66.80;;;;;;;;;;4980781;28;20042;-64
2022/10/15 06:01:05;;;;;;;163.80;68.50;;;;;;;;;;4981779;28;20057;-64
2022/10/15 06:03:31;;;;;;;169.35;67.75;;;;;;;;;;4964197;28;20105;-64
2022/10/15 06:05:57;;;;;;;169.55;67.82;;;;;;;;;;4979945;28;20393;-64
2022/10/15 06:08:23;;;;;;;162.40;68.20;;;;;;;;;;4980377;28;20052;-63
2022/10/15 06:10:50;;;;;;;165.60;65.68;;;;;;;;;;4970037;28;20046;-64
2022/10/15 06:13:16;;;;;;;169.18;68.55;;;;;;;;;;4980048;28;20097;-64
2022/10/15 06:15:43;;;;;;;172.00;66.95;;;;;;;;;;4979468;28;20050;-63
2022/10/15 06:18:11;;;;;;;166.00;68.47;;;;;;;;;;4983781;28;20080;-64
2022/10/15 06:20:39;;;;;;;161.77;65.85;;;;;;;;;;4982874;28;20545;-64
2022/10/15 06:23:05;;;;;;;182.43;71.70;;;;;;;;;;4983814;28;20054;-64
2022/10/15 06:25:31;;;;;;;175.00;71.45;;;;;;;;;;4983739;28;20042;-65
2022/10/15 06:28:04;;;;;;;182.13;75.55;;;;;;;;;;4980150;28;20490;-64
2022/10/15 06:30:30;;;;;;;178.20;71.80;;;;;;;;;;4979705;28;20046;-64
2022/10/15 06:32:57;;;;;;;187.00;73.00;;;;;;;;;;4980459;28;20046;-64
2022/10/15 06:35:24;;;;;;;189.48;75.03;;;;;;;;;;4977121;28;20046;-64
2022/10/15 06:37:51;;;;;;;198.73;78.47;;;;;;;;;;4977677;28;20074;-64
2022/10/15 06:40:17;;;;;;;181.98;76.25;;;;;;;;;;4979191;28;20038;-63
2022/10/15 06:42:43;;;;;;;189.23;76.95;;;;;;;;;;4978953;28;20042;-63
2022/10/15 06:45:10;;;;;;;187.88;75.93;;;;;;;;;;4979880;28;20038;-63
2022/10/15 06:47:37;;;;;;;182.23;78.80;;;;;;;;;;4978208;28;20081;-63
2022/10/15 06:50:04;;;;;;;186.95;79.60;;;;;;;;;;4980107;28;20038;-63
2022/10/15 06:52:31;;;;;;;179.38;77.70;;;;;;;;;;4978024;28;20042;-64
2022/10/15 06:54:57;;;;;;;185.82;80.53;;;;;;;;;;4979748;28;20538;-63
2022/10/15 06:57:24;;;;;;;199.63;81.35;;;;;;;;;;4979850;28;21103;-63
2022/10/15 06:59:51;;;;;;;188.75;78.97;;;;;;;;;;4982110;28;20049;-64
2022/10/15 07:02:18;;;;;;;194.57;80.60;;;;;;;;;;4981750;28;20050;-63
2022/10/15 07:04:44;;;;;;;194.02;81.00;;;;;;;;;;4983195;28;20038;-64
2022/10/15 07:07:11;;;;;;;186.45;78.13;;;;;;;;;;4983729;28;20060;-63
2022/10/15 07:09:37;;;;;;;197.45;80.07;;;;;;;;;;4980914;28;20082;-63
2022/10/15 07:12:04;;;;;;;196.27;83.10;;;;;;;;;;4982118;28;20054;-63
2022/10/15 07:14:30;;;;;;;202.43;84.97;;;;;;;;;;4984153;28;20523;-63
2022/10/15 07:16:57;;;;;;;191.43;82.18;;;;;;;;;;4981318;28;20147;-63
2022/10/15 07:19:23;;;;;;;206.77;84.60;;;;;;;;;;4981471;28;20509;-63
2022/10/15 07:21:49;;;;;;;210.27;84.90;;;;;;;;;;4984241;28;20038;-63
2022/10/15 07:24:15;;;;;;;200.88;83.15;;;;;;;;;;4986103;28;20141;-63
2022/10/15 07:26:41;;;;;;;196.52;82.80;;;;;;;;;;4986486;28;20034;-63
2022/10/15 07:29:08;;;;;;;212.15;85.53;;;;;;;;;;4984528;28;20049;-63
2022/10/15 07:31:34;;;;;;;200.80;87.15;;;;;;;;;;4984811;28;20172;-64
2022/10/15 07:34:00;;;;;;;197.43;84.80;;;;;;;;;;4985323;28;21583;-62
2022/10/15 07:36:26;;;;;;;219.77;88.35;;;;;;;;;;4989149;28;20413;-63
2022/10/15 07:38:52;;;;;;;207.32;83.35;;;;;;;;;;4981646;28;20050;-62
2022/10/15 07:41:19;;;;;;;190.07;82.55;;;;;;;;;;4985231;28;20092;-63
2022/10/15 07:43:45;;;;;;;192.90;79.15;;;;;;;;;;4986603;28;20046;-63
2022/10/15 07:46:11;;;;;;;177.52;77.30;;;;;;;;;;4987878;28;20062;-63
2022/10/15 07:48:37;;;;;;;175.50;72.38;;;;;;;;;;4987427;28;20088;-63
2022/10/15 07:51:05;;;;;;;180.63;77.28;;;;;;;;;;4988180;28;20429;-63
2022/10/15 07:53:31;;;;;;;184.43;76.25;;;;;;;;;;4986915;28;20085;-63
2022/10/15 07:56:16;;;;;;;171.25;72.95;;;;;;;;;;4989456;28;20623;-66
2022/10/15 07:58:42;;;;;;;171.48;70.32;;;;;;;;;;4988905;28;20046;-63
2022/10/15 08:01:09;;;;;;;178.20;70.78;;;;;;;;;;4987349;28;20096;-63
2022/10/15 08:03:36;;;;;;;179.57;70.93;;;;;;;;;;4983787;28;20157;-62
2022/10/15 08:06:03;;;;;;;178.02;66.90;;;;;;;;;;4982167;28;20125;-63
2022/10/15 08:08:30;;;;;;;171.90;65.28;;;;;;;;;;4983355;28;20058;-62
2022/10/15 08:10:56;;;;;;;187.13;67.60;;;;;;;;;;4982763;28;20430;-63
2022/10/15 08:13:23;;;;;;;175.70;67.78;;;;;;;;;;4986174;28;20502;-63
2022/10/15 08:15:49;;;;;;;183.25;70.63;;;;;;;;;;4984208;28;20498;-63
2022/10/15 08:18:15;;;;;;;188.43;72.97;;;;;;;;;;4981217;28;20081;-63
2022/10/15 08:20:41;;;;;;;184.32;68.13;;;;;;;;;;4985381;28;20808;-63
2022/10/15 08:23:13;;;;;;;185.20;71.43;;;;;;;;;;4985567;28;20084;-63
2022/10/15 08:25:40;;;;;;;190.10;68.72;;;;;;;;;;4965587;28;20046;-63
2022/10/15 08:28:08;;;;;;;186.25;69.45;;;;;;;;;;4988713;28;20048;-64
2022/10/15 08:30:35;;;;;;;199.27;71.93;;;;;;;;;;4968677;28;20050;-63
2022/10/15 08:33:01;;;;;;;182.60;68.35;;;;;;;;;;4964264;28;20077;-63
2022/10/15 08:35:27;;;;;;;190.07;68.45;;;;;;;;;;4967289;28;20046;-63
2022/10/15 08:37:54;;;;;;;187.68;66.40;;;;;;;;;;4967301;28;20054;-64
2022/10/15 08:40:21;;;;;;;172.10;63.80;;;;;;;;;;4983382;28;20038;-64
2022/10/15 08:42:49;;;;;;;174.13;64.57;;;;;;;;;;4967093;28;20042;-64
2022/10/15 08:45:17;;;;;;;175.60;64.40;;;;;;;;;;4984823;28;20053;-63
2022/10/15 08:47:50;;;;;;;168.93;63.97;;;;;;;;;;4983413;28;20035;-64
2022/10/15 08:50:16;;;;;;;158.75;62.25;;;;;;;;;;4985246;28;20129;-64
2022/10/15 08:52:44;;;;;;;145.80;56.55;;;;;;;;;;4985678;28;20088;-64
2022/10/15 08:55:12;;;;;;;147.88;58.90;;;;;;;;;;4984801;28;20062;-63
2022/10/15 08:57:47;;;;;;;135.30;57.15;;;;;;;;;;4985201;28;20034;-64
2022/10/15 09:00:21;;;;;;;142.23;61.95;;;;;;;;;;4985102;28;20057;-64
2022/10/15 09:02:47;;;;;;;;;;;;;;;;;;4970005;28;20061;-64
2022/10/15 09:05:26;;;;;;;147.73;61.63;;;;;;;;;;4987458;28;19922;-64
2022/10/15 09:07:57;;;;;;;163.05;65.07;;;;;;;;;;4979824;28;20046;-64
2022/10/15 09:10:23;;;;;;;146.80;63.20;;;;;;;;;;4963076;28;20062;-63
2022/10/15 09:12:49;;;;;;;151.48;61.97;;;;;;;;;;4980933;28;20564;-64
2022/10/15 09:15:17;;;;;;;142.30;59.33;;;;;;;;;;4980211;28;20049;-63
2022/10/15 09:17:45;;;;;;;135.30;58.28;;;;;;;;;;4975371;28;20061;-63
2022/10/15 09:20:18;;;;;;;107.78;51.38;;;;;;;;;;4978528;28;20047;-66
2022/10/15 09:22:47;;;;;;;101.50;50.45;;;;;;;;;;4967448;28;20042;-66
2022/10/15 09:25:16;;;;;;;96.70;49.33;;;;;;;;;;4983993;28;20447;-66
2022/10/15 09:27:42;;;;;;;103.40;51.25;;;;;;;;;;4983629;28;20109;-64
2022/10/15 09:30:28;;;;;;;79.53;46.25;;;;;;;;;;4979557;28;20046;-64
2022/10/15 09:32:57;;;;;;;77.78;44.88;;;;;;;;;;4984595;28;20053;-67
2022/10/15 09:35:26;;;;;;;76.03;45.33;;;;;;;;;;4979023;28;20116;-64
2022/10/15 09:37:56;;;;;;;74.10;41.60;;;;;;;;;;4967516;28;20141;-63
2022/10/15 09:40:27;;;;;;;78.50;42.50;;;;;;;;;;4983549;28;20516;-63
2022/10/15 09:42:54;;;;;;;74.97;41.22;;;;;;;;;;4981546;28;20105;-63
2022/10/15 09:45:23;;;;;;;85.35;45.63;;;;;;;;;;4983993;28;20046;-64
2022/10/15 09:47:49;;;;;;;80.85;44.63;;;;;;;;;;4981846;28;20102;-63
2022/10/15 09:50:15;;;;;;;75.30;40.10;;;;;;;;;;4981548;28;20045;-63
2022/10/15 09:52:48;;;;;;;73.95;39.05;;;;;;;;;;4984222;28;20073;-64
2022/10/15 09:55:14;;;;;;;70.22;39.28;;;;;;;;;;4981753;28;20057;-63
2022/10/15 09:57:41;;;;;;;72.72;39.33;;;;;;;;;;4980458;28;20042;-65
2022/10/15 10:00:10;;;;;;;65.20;35.03;;;;;;;;;;4981325;28;20064;-65
2022/10/15 10:02:36;;;;;;;62.45;33.80;;;;;;;;;;4981955;28;20046;-65
2022/10/15 10:05:20;;;;;;;60.17;32.47;;;;;;;;;;4981191;28;20077;-64
2022/10/15 10:07:46;;;;;;;58.47;30.07;;;;;;;;;;4983909;28;20121;-64
2022/10/15 10:10:24;;;;;;;61.95;30.25;;;;;;;;;;4983563;28;20305;-65
2022/10/15 10:12:51;;;;;;;58.30;30.80;;;;;;;;;;4976558;28;20046;-65
2022/10/15 10:15:21;;;;;;;54.78;27.75;;;;;;;;;;4963806;28;20524;-65
2022/10/15 10:17:52;;;;;;;59.60;30.10;;;;;;;;;;4981092;28;20247;-65
2022/10/15 10:20:19;;;;;;;61.50;32.50;;;;;;;;;;4982590;28;20557;-65
2022/10/15 10:22:59;;;;;;;57.78;29.42;;;;;;;;;;4980659;28;20038;-65
2022/10/15 10:25:27;;;;;;;58.20;31.25;;;;;;;;;;4981759;28;20482;-65
2022/10/15 10:27:54;;;;;;;56.83;29.45;;;;;;;;;;4963399;28;20735;-65
2022/10/15 10:30:20;;;;;;;46.08;26.23;;;;;;;;;;4982970;28;20061;-65
2022/10/15 10:32:47;;;;;;;51.70;27.98;;;;;;;;;;4982735;28;20054;-65
2022/10/15 10:35:20;;;;;;;55.63;28.02;;;;;;;;;;4983267;28;20068;-64
2022/10/15 10:37:46;;;;;;;49.85;27.30;;;;;;;;;;4983130;28;20497;-65
2022/10/15 10:40:26;;;;;;;57.42;30.00;;;;;;;;;;4981330;28;20061;-63
2022/10/15 10:43:11;;;;;;;55.33;29.42;;;;;;;;;;4965581;28;20050;-64
2022/10/15 10:45:37;;;;;;;51.58;27.45;;;;;;;;;;4962323;28;20051;-64
2022/10/15 10:48:20;;;;;;;49.85;28.40;;;;;;;;;;4982071;28;20061;-64
2022/10/15 10:50:46;;;;;;;46.28;26.15;;;;;;;;;;4983455;28;20513;-64
2022/10/15 10:53:18;;;;;;;48.97;28.15;;;;;;;;;;4982847;28;21527;-64
2022/10/15 10:55:45;;;;;;;48.17;26.55;;;;;;;;;;4985708;28;21727;-64
2022/10/15 10:58:15;;;;;;;49.63;28.13;;;;;;;;;;4986993;28;20070;-64
2022/10/15 11:00:42;;;;;;;42.15;25.13;;;;;;;;;;4986352;28;20141;-64
2022/10/15 11:03:19;;;;;;;47.15;25.27;;;;;;;;;;4985737;28;20050;-64
2022/10/15 11:05:46;;;;;;;45.70;26.40;;;;;;;;;;4987732;28;20042;-64
2022/10/15 11:08:19;;;;;;;47.40;27.63;;;;;;;;;;4987073;28;20041;-64
2022/10/15 11:10:54;;;;;;;42.03;25.33;;;;;;;;;;4974623;28;20517;-64
2022/10/15 11:13:29;;;;;;;39.28;22.60;;;;;;;;;;4986427;28;20410;-64
2022/10/15 11:16:00;;;;;;;34.45;22.70;;;;;;;;;;4988416;28;20129;-64
2022/10/15 11:18:32;;;;;;;38.60;21.58;;;;;;;;;;4989653;28;20046;-64
2022/10/15 11:21:06;;;;;;;31.83;21.48;;;;;;;;;;4987404;28;20505;-64
2022/10/15 11:23:51;;;;;;;35.08;22.13;;;;;;;;;;4984930;28;20508;-65
2022/10/15 11:26:26;;;;;;;34.50;22.10;;;;;;;;;;4985820;28;20109;-64
2022/10/15 11:29:11;;;;;;;29.50;20.48;;;;;;;;;;4985109;28;20039;-65
2022/10/15 11:31:43;;;;;;;27.33;19.13;;;;;;;;;;4985509;28;20410;-64
2022/10/15 11:34:09;;;;;;;29.15;19.30;;;;;;;;;;4987944;28;20187;-64
2022/10/15 11:36:44;;;;;;;26.52;19.00;;;;;;;;;;4986274;28;20538;-64
2022/10/15 11:39:22;;;;;;;26.58;18.27;;;;;;;;;;4985508;28;20086;-67
2022/10/15 11:41:58;;;;;;;26.95;17.95;;;;;;;;;;4983903;28;20393;-66
2022/10/15 11:44:28;;;;;;;23.20;17.65;;;;;;;;;;4985796;28;20061;-66
2022/10/15 11:47:02;;;;;;;22.27;16.63;;;;;;;;;;4983460;28;20165;-66
2022/10/15 11:49:47;;;;;;;23.25;17.42;;;;;;;;;;4982110;28;20073;-63
2022/10/15 11:52:18;;;;;;;20.67;15.60;;;;;;;;;;4982627;28;20050;-66
2022/10/15 11:54:47;;;;;;;21.65;15.93;;;;;;;;;;4986445;28;20129;-66
2022/10/15 11:57:15;;;;;;;21.10;15.57;;;;;;;;;;4984375;28;20566;-66
2022/10/15 11:59:49;;;;;;;22.80;16.20;;;;;;;;;;4984619;28;20441;-66
2022/10/15 12:02:17;;;;;;;21.75;15.35;;;;;;;;;;4983520;28;20408;-66
2022/10/15 12:04:48;;;;;;;20.20;15.23;;;;;;;;;;4984040;28;20038;-64
2022/10/15 12:07:18;;;;;;;19.05;14.63;;;;;;;;;;4983609;28;20119;-64
2022/10/15 12:09:46;;;;;;;19.25;14.77;;;;;;;;;;4983412;28;20058;-64
2022/10/15 12:12:28;;;;;;;20.33;13.75;;;;;;;;;;4965188;28;20059;-64
2022/10/15 12:15:03;;;;;;;18.17;13.70;;;;;;;;;;4965347;28;20043;-64
2022/10/15 12:17:34;;;;;;;20.13;14.85;;;;;;;;;;4946001;28;20077;-63
2022/10/15 12:20:07;;;;;;;24.42;15.27;;;;;;;;;;4949297;28;20431;-64
2022/10/15 12:22:34;;;;;;;35.33;15.52;;;;;;;;;;4949481;28;20125;-64
2022/10/15 12:25:00;;;;;;;17.73;13.18;;;;;;;;;;4947644;28;20043;-64
2022/10/15 12:27:29;;;;;;;17.83;13.98;;;;;;;;;;4965682;28;20053;-64
2022/10/15 12:29:59;;;;;;;20.33;14.07;;;;;;;;;;4949355;28;20433;-64
2022/10/15 12:32:26;;;;;;;20.55;14.05;;;;;;;;;;4964964;28;20476;-64
2022/10/15 12:35:02;;;;;;;17.08;13.43;;;;;;;;;;4948448;28;20043;-64
2022/10/15 12:37:30;;;;;;;18.13;13.93;;;;;;;;;;4947901;28;20053;-64
2022/10/15 12:40:02;;;;;;;15.30;12.63;;;;;;;;;;4944130;28;20042;-64
2022/10/15 12:42:31;;;;;;;16.13;13.13;;;;;;;;;;4943602;28;20038;-63
2022/10/15 12:44:58;;;;;;;15.23;12.02;;;;;;;;;;4948900;28;20053;-64
2022/10/15 12:47:43;;;;;;;18.40;12.60;;;;;;;;;;4965457;28;20046;-64
2022/10/15 12:50:16;;;;;;;16.25;12.73;;;;;;;;;;4957872;28;20074;-64
2022/10/15 12:52:46;;;;;;;16.85;11.98;;;;;;;;;;4940413;28;21714;-64
2022/10/15 12:55:20;;;;;;;16.10;11.82;;;;;;;;;;4963666;28;20045;-64
2022/10/15 12:57:46;;;;;;;19.75;13.88;;;;;;;;;;4964926;28;20106;-64
2022/10/15 13:00:31;;;;;;;20.27;14.55;;;;;;;;;;4946672;28;20047;-64
2022/10/15 13:03:07;;;;;;;22.30;15.75;;;;;;;;;;4947352;28;20042;-64
2022/10/15 13:05:34;;;;;;;21.88;15.15;;;;;;;;;;4965059;28;20443;-65
2022/10/15 13:08:02;;;;;;;25.15;17.15;;;;;;;;;;4963483;28;20038;-64
2022/10/15 13:10:30;;;;;;;27.42;17.40;;;;;;;;;;4954584;28;20137;-63
2022/10/15 13:12:57;;;;;;;27.92;16.95;;;;;;;;;;4982540;28;20140;-64
2022/10/15 13:15:25;;;;;;;29.70;18.15;;;;;;;;;;4984977;28;20113;-63
2022/10/15 13:17:53;;;;;;;27.00;16.92;;;;;;;;;;4981561;28;20445;-64
2022/10/15 13:20:28;;;;;;;28.95;16.70;;;;;;;;;;4979742;28;20069;-64
2022/10/15 13:23:07;;;;;;;34.45;18.23;;;;;;;;;;4982735;28;20505;-64
2022/10/15 13:25:33;;;;;;;36.00;18.30;;;;;;;;;;4984400;28;20043;-64
2022/10/15 13:27:59;;;;;;;32.30;17.20;;;;;;;;;;4982894;28;20045;-64
2022/10/15 13:30:25;;;;;;;32.00;17.10;;;;;;;;;;4984386;28;21737;-64
2022/10/15 13:32:52;;;;;;;33.03;16.02;;;;;;;;;;4981900;28;20046;-63
2022/10/15 13:35:21;;;;;;;29.55;15.98;;;;;;;;;;4982929;28;20048;-64
2022/10/15 13:37:48;;;;;;;33.53;17.48;;;;;;;;;;4984428;28;20494;-65
2022/10/15 13:40:22;;;;;;;36.53;17.45;;;;;;;;;;4986166;28;20102;-65
2022/10/15 13:42:48;;;;;;;;;;;;;;;;;;4983250;28;20208;-65
2022/10/15 13:45:14;;;;;;;37.33;17.52;;;;;;;;;;4981978;28;20337;-63
2022/10/15 13:47:42;;;;;;;34.60;17.10;;;;;;;;;;4979852;28;20490;-64
2022/10/15 13:50:12;;;;;;;39.67;18.27;;;;;;;;;;4981565;28;20046;-63
2022/10/15 13:52:40;;;;;;;40.63;18.17;;;;;;;;;;4984053;28;20054;-64
2022/10/15 13:55:15;;;;;;;37.60;18.88;;;;;;;;;;4964945;28;20034;-64
2022/10/15 13:57:44;;;;;;;40.38;19.75;;;;;;;;;;4981477;28;20034;-64
2022/10/15 14:00:21;;;;;;;45.45;19.80;;;;;;;;;;4984150;28;20148;-64
2022/10/15 14:03:05;;;;;;;36.63;19.27;;;;;;;;;;4982945;28;20050;-64
2022/10/15 14:05:31;;;;;;;36.45;18.25;;;;;;;;;;4983506;28;20115;-63
2022/10/15 14:07:58;;;;;;;40.38;20.77;;;;;;;;;;4981990;28;20046;-63
2022/10/15 14:10:24;;;;;;;40.33;19.15;;;;;;;;;;4982150;28;20050;-63
2022/10/15 14:12:51;;;;;;;43.08;21.38;;;;;;;;;;4982363;28;20050;-64
2022/10/15 14:15:36;;;;;;;48.75;20.42;;;;;;;;;;4983579;28;20061;-65
2022/10/15 14:18:02;;;;;;;64.53;23.25;;;;;;;;;;4979077;28;20438;-64